sensor_id;sensor_type;location;lat;lon;timestamp;P1;durP1;ratioP1;P2;durP2;ratioP2
27925;SDS011;15267;47.838;12.128;2022-07-29T00:02:09;1.70;;;1.60;;
27925;SDS011;15267;47.838;12.128;2022-07-29T00:04:35;2.05;;;1.60;;
27925;SDS011;15267;47.838;12.128;2022-07-29T00:07:02;2.70;;;2.00;;
27925;SDS011;15267;47.838;12.128;2022-07-29T00:09:28;4.97;;;2.20;;
27925;SDS011;15267;47.838;12.128;2022-07-29T00:11:55;2.22;;;1.90;;
27925;SDS011;15267;47.838;12.128;2022-07-29T00:14:22;3.50;;;1.92;;
27925;SDS011;15267;47.838;12.128;2022-07-29T00:16:48;3.42;;;1.80;;
27925;SDS011;15267;47.838;12.128;2022-07-29T00:19:14;3.92;;;1.88;;
27925;SDS011;15267;47.838;12.128;2022-07-29T00:21:40;3.42;;;1.70;;
27925;SDS011;15267;47.838;12.128;2022-07-29T00:24:06;2.50;;;1.80;;
27925;SDS011;15267;47.838;12.128;2022-07-29T00:26:32;4.50;;;1.83;;
27925;SDS011;15267;47.838;12.128;2022-07-29T00:28:59;2.92;;;1.95;;
27925;SDS011;15267;47.838;12.128;2022-07-29T00:31:25;3.40;;;1.85;;
27925;SDS011;15267;47.838;12.128;2022-07-29T00:33:51;3.85;;;1.73;;
27925;SDS011;15267;47.838;12.128;2022-07-29T00:36:17;1.95;;;1.80;;
27925;SDS011;15267;47.838;12.128;2022-07-29T00:38:43;5.13;;;2.00;;
27925;SDS011;15267;47.838;12.128;2022-07-29T00:41:11;2.00;;;1.80;;
27925;SDS011;15267;47.838;12.128;2022-07-29T00:43:37;3.63;;;1.98;;
27925;SDS011;15267;47.838;12.128;2022-07-29T00:46:03;2.60;;;1.73;;
27925;SDS011;15267;47.838;12.128;2022-07-29T00:48:29;3.03;;;1.80;;
27925;SDS011;15267;47.838;12.128;2022-07-29T00:50:56;4.32;;;2.03;;
27925;SDS011;15267;47.838;12.128;2022-07-29T00:53:23;3.15;;;1.95;;
27925;SDS011;15267;47.838;12.128;2022-07-29T00:55:50;3.65;;;1.83;;
27925;SDS011;15267;47.838;12.128;2022-07-29T00:58:16;2.58;;;1.80;;
27925;SDS011;15267;47.838;12.128;2022-07-29T01:00:42;2.08;;;1.65;;
27925;SDS011;15267;47.838;12.128;2022-07-29T01:03:08;2.58;;;1.88;;
27925;SDS011;15267;47.838;12.128;2022-07-29T01:05:34;2.05;;;1.63;;
27925;SDS011;15267;47.838;12.128;2022-07-29T01:08:00;3.72;;;1.70;;
27925;SDS011;15267;47.838;12.128;2022-07-29T01:10:27;2.13;;;1.77;;
27925;SDS011;15267;47.838;12.128;2022-07-29T01:12:54;2.40;;;1.80;;
27925;SDS011;15267;47.838;12.128;2022-07-29T01:15:20;2.50;;;1.60;;
27925;SDS011;15267;47.838;12.128;2022-07-29T01:20:22;1.60;;;1.50;;
27925;SDS011;15267;47.838;12.128;2022-07-29T01:30:42;4.05;;;1.70;;
27925;SDS011;15267;47.838;12.128;2022-07-29T01:33:10;3.00;;;1.70;;
27925;SDS011;15267;47.838;12.128;2022-07-29T01:35:57;1.95;;;1.50;;
27925;SDS011;15267;47.838;12.128;2022-07-29T01:38:24;2.97;;;1.45;;
27925;SDS011;15267;47.838;12.128;2022-07-29T01:41:09;3.60;;;1.58;;
27925;SDS011;15267;47.838;12.128;2022-07-29T01:46:27;1.95;;;1.60;;
27925;SDS011;15267;47.838;12.128;2022-07-29T01:48:57;4.70;;;1.80;;
27925;SDS011;15267;47.838;12.128;2022-07-29T01:51:47;2.72;;;1.70;;
27925;SDS011;15267;47.838;12.128;2022-07-29T01:54:32;2.13;;;1.23;;
27925;SDS011;15267;47.838;12.128;2022-07-29T01:56:59;1.77;;;1.45;;
27925;SDS011;15267;47.838;12.128;2022-07-29T01:59:26;3.83;;;1.52;;
27925;SDS011;15267;47.838;12.128;2022-07-29T02:01:53;1.60;;;1.50;;
27925;SDS011;15267;47.838;12.128;2022-07-29T02:04:19;2.35;;;1.60;;
27925;SDS011;15267;47.838;12.128;2022-07-29T02:06:46;2.15;;;1.60;;
27925;SDS011;15267;47.838;12.128;2022-07-29T02:09:13;1.88;;;1.48;;
27925;SDS011;15267;47.838;12.128;2022-07-29T02:11:40;2.85;;;1.50;;
27925;SDS011;15267;47.838;12.128;2022-07-29T02:14:09;2.67;;;1.60;;
27925;SDS011;15267;47.838;12.128;2022-07-29T02:16:36;1.70;;;1.50;;
27925;SDS011;15267;47.838;12.128;2022-07-29T02:19:04;2.25;;;1.88;;
27925;SDS011;15267;47.838;12.128;2022-07-29T02:21:31;2.85;;;1.50;;
27925;SDS011;15267;47.838;12.128;2022-07-29T02:23:58;1.60;;;1.50;;
27925;SDS011;15267;47.838;12.128;2022-07-29T02:26:25;2.20;;;1.63;;
27925;SDS011;15267;47.838;12.128;2022-07-29T02:28:52;2.47;;;1.50;;
27925;SDS011;15267;47.838;12.128;2022-07-29T02:31:21;1.92;;;1.70;;
27925;SDS011;15267;47.838;12.128;2022-07-29T02:33:48;1.85;;;1.50;;
27925;SDS011;15267;47.838;12.128;2022-07-29T02:36:15;1.65;;;1.55;;
27925;SDS011;15267;47.838;12.128;2022-07-29T02:38:42;2.95;;;1.70;;
27925;SDS011;15267;47.838;12.128;2022-07-29T02:43:41;1.92;;;1.63;;
27925;SDS011;15267;47.838;12.128;2022-07-29T02:46:08;1.98;;;1.50;;
27925;SDS011;15267;47.838;12.128;2022-07-29T02:48:37;3.25;;;1.50;;
27925;SDS011;15267;47.838;12.128;2022-07-29T02:51:08;1.70;;;1.60;;
27925;SDS011;15267;47.838;12.128;2022-07-29T02:53:37;3.45;;;1.80;;
27925;SDS011;15267;47.838;12.128;2022-07-29T02:56:06;2.30;;;1.70;;
27925;SDS011;15267;47.838;12.128;2022-07-29T02:58:33;3.38;;;1.75;;
27925;SDS011;15267;47.838;12.128;2022-07-29T03:01:02;1.67;;;1.58;;
27925;SDS011;15267;47.838;12.128;2022-07-29T03:03:30;2.88;;;1.90;;
27925;SDS011;15267;47.838;12.128;2022-07-29T03:05:58;2.22;;;1.70;;
27925;SDS011;15267;47.838;12.128;2022-07-29T03:08:25;2.97;;;2.00;;
27925;SDS011;15267;47.838;12.128;2022-07-29T03:10:52;2.42;;;1.70;;
27925;SDS011;15267;47.838;12.128;2022-07-29T03:13:18;2.47;;;1.60;;
27925;SDS011;15267;47.838;12.128;2022-07-29T03:15:45;2.13;;;1.70;;
27925;SDS011;15267;47.838;12.128;2022-07-29T03:18:11;3.53;;;1.90;;
27925;SDS011;15267;47.838;12.128;2022-07-29T03:20:38;1.70;;;1.60;;
27925;SDS011;15267;47.838;12.128;2022-07-29T03:23:04;3.97;;;1.70;;
27925;SDS011;15267;47.838;12.128;2022-07-29T03:25:30;2.53;;;1.70;;
27925;SDS011;15267;47.838;12.128;2022-07-29T03:27:56;2.95;;;1.60;;
27925;SDS011;15267;47.838;12.128;2022-07-29T03:30:22;3.05;;;1.70;;
27925;SDS011;15267;47.838;12.128;2022-07-29T03:32:49;2.03;;;1.55;;
27925;SDS011;15267;47.838;12.128;2022-07-29T03:35:15;1.70;;;1.50;;
27925;SDS011;15267;47.838;12.128;2022-07-29T03:37:41;3.38;;;1.58;;
27925;SDS011;15267;47.838;12.128;2022-07-29T03:40:08;2.00;;;1.40;;
27925;SDS011;15267;47.838;12.128;2022-07-29T03:42:37;2.75;;;1.65;;
27925;SDS011;15267;47.838;12.128;2022-07-29T03:45:09;2.83;;;1.83;;
27925;SDS011;15267;47.838;12.128;2022-07-29T03:47:37;3.40;;;1.70;;
27925;SDS011;15267;47.838;12.128;2022-07-29T03:50:06;3.03;;;1.80;;
27925;SDS011;15267;47.838;12.128;2022-07-29T03:52:32;2.88;;;1.63;;
27925;SDS011;15267;47.838;12.128;2022-07-29T03:54:58;3.33;;;1.70;;
27925;SDS011;15267;47.838;12.128;2022-07-29T03:57:25;2.17;;;1.67;;
27925;SDS011;15267;47.838;12.128;2022-07-29T03:59:52;2.20;;;1.73;;
27925;SDS011;15267;47.838;12.128;2022-07-29T04:02:18;2.72;;;1.98;;
27925;SDS011;15267;47.838;12.128;2022-07-29T04:04:45;3.60;;;1.65;;
27925;SDS011;15267;47.838;12.128;2022-07-29T04:07:14;2.25;;;1.60;;
27925;SDS011;15267;47.838;12.128;2022-07-29T04:09:41;2.15;;;1.70;;
27925;SDS011;15267;47.838;12.128;2022-07-29T04:12:07;3.50;;;1.80;;
27925;SDS011;15267;47.838;12.128;2022-07-29T04:14:33;2.35;;;1.50;;
27925;SDS011;15267;47.838;12.128;2022-07-29T04:17:03;4.32;;;1.58;;
27925;SDS011;15267;47.838;12.128;2022-07-29T04:19:29;3.72;;;1.60;;
27925;SDS011;15267;47.838;12.128;2022-07-29T04:21:55;3.75;;;1.73;;
27925;SDS011;15267;47.838;12.128;2022-07-29T04:24:21;3.95;;;1.88;;
27925;SDS011;15267;47.838;12.128;2022-07-29T04:26:47;3.03;;;1.67;;
27925;SDS011;15267;47.838;12.128;2022-07-29T04:29:14;3.30;;;1.65;;
27925;SDS011;15267;47.838;12.128;2022-07-29T04:31:40;2.92;;;1.70;;
27925;SDS011;15267;47.838;12.128;2022-07-29T04:34:06;4.03;;;1.73;;
27925;SDS011;15267;47.838;12.128;2022-07-29T04:36:32;3.70;;;1.88;;
27925;SDS011;15267;47.838;12.128;2022-07-29T04:38:58;2.20;;;1.60;;
27925;SDS011;15267;47.838;12.128;2022-07-29T04:41:26;2.53;;;1.77;;
27925;SDS011;15267;47.838;12.128;2022-07-29T04:43:52;3.05;;;1.80;;
27925;SDS011;15267;47.838;12.128;2022-07-29T04:46:18;3.13;;;1.70;;
27925;SDS011;15267;47.838;12.128;2022-07-29T04:48:47;3.33;;;1.92;;
27925;SDS011;15267;47.838;12.128;2022-07-29T04:51:13;3.90;;;1.50;;
27925;SDS011;15267;47.838;12.128;2022-07-29T04:53:39;2.42;;;1.60;;
27925;SDS011;15267;47.838;12.128;2022-07-29T04:56:05;4.70;;;1.85;;
27925;SDS011;15267;47.838;12.128;2022-07-29T04:58:33;2.63;;;1.90;;
27925;SDS011;15267;47.838;12.128;2022-07-29T05:00:59;2.80;;;1.77;;
27925;SDS011;15267;47.838;12.128;2022-07-29T05:03:25;3.25;;;1.90;;
27925;SDS011;15267;47.838;12.128;2022-07-29T05:05:51;4.18;;;2.10;;
27925;SDS011;15267;47.838;12.128;2022-07-29T05:08:17;4.03;;;2.22;;
27925;SDS011;15267;47.838;12.128;2022-07-29T05:10:45;6.88;;;2.25;;
27925;SDS011;15267;47.838;12.128;2022-07-29T05:13:11;3.22;;;2.05;;
27925;SDS011;15267;47.838;12.128;2022-07-29T05:15:37;5.50;;;2.40;;
27925;SDS011;15267;47.838;12.128;2022-07-29T05:18:03;5.75;;;1.92;;
27925;SDS011;15267;47.838;12.128;2022-07-29T05:20:30;4.47;;;2.00;;
27925;SDS011;15267;47.838;12.128;2022-07-29T05:22:57;3.42;;;2.00;;
27925;SDS011;15267;47.838;12.128;2022-07-29T05:25:24;5.20;;;2.15;;
27925;SDS011;15267;47.838;12.128;2022-07-29T05:27:50;3.80;;;1.80;;
27925;SDS011;15267;47.838;12.128;2022-07-29T05:30:16;3.05;;;1.90;;
27925;SDS011;15267;47.838;12.128;2022-07-29T05:32:42;5.55;;;2.30;;
27925;SDS011;15267;47.838;12.128;2022-07-29T05:35:08;4.35;;;2.03;;
27925;SDS011;15267;47.838;12.128;2022-07-29T05:37:34;5.50;;;2.45;;
27925;SDS011;15267;47.838;12.128;2022-07-29T05:40:00;5.55;;;2.00;;
27925;SDS011;15267;47.838;12.128;2022-07-29T05:42:26;3.88;;;2.00;;
27925;SDS011;15267;47.838;12.128;2022-07-29T05:44:54;4.53;;;1.92;;
27925;SDS011;15267;47.838;12.128;2022-07-29T05:47:20;4.88;;;2.00;;
27925;SDS011;15267;47.838;12.128;2022-07-29T05:49:46;2.35;;;1.95;;
27925;SDS011;15267;47.838;12.128;2022-07-29T05:52:12;8.43;;;2.00;;
27925;SDS011;15267;47.838;12.128;2022-07-29T05:54:40;7.75;;;1.98;;
27925;SDS011;15267;47.838;12.128;2022-07-29T05:57:06;3.83;;;2.05;;
27925;SDS011;15267;47.838;12.128;2022-07-29T05:59:36;6.40;;;2.42;;
27925;SDS011;15267;47.838;12.128;2022-07-29T06:02:02;6.15;;;2.33;;
27925;SDS011;15267;47.838;12.128;2022-07-29T06:04:30;5.63;;;2.13;;
27925;SDS011;15267;47.838;12.128;2022-07-29T06:06:56;4.25;;;2.00;;
27925;SDS011;15267;47.838;12.128;2022-07-29T06:09:22;4.57;;;2.00;;
27925;SDS011;15267;47.838;12.128;2022-07-29T06:11:48;5.28;;;1.88;;
27925;SDS011;15267;47.838;12.128;2022-07-29T06:14:14;6.15;;;2.03;;
27925;SDS011;15267;47.838;12.128;2022-07-29T06:16:40;4.28;;;1.80;;
27925;SDS011;15267;47.838;12.128;2022-07-29T06:19:06;2.42;;;1.60;;
27925;SDS011;15267;47.838;12.128;2022-07-29T06:21:32;3.33;;;1.77;;
27925;SDS011;15267;47.838;12.128;2022-07-29T06:23:58;2.28;;;1.50;;
27925;SDS011;15267;47.838;12.128;2022-07-29T06:26:24;2.90;;;1.40;;
27925;SDS011;15267;47.838;12.128;2022-07-29T06:28:50;4.93;;;1.58;;
27925;SDS011;15267;47.838;12.128;2022-07-29T06:31:16;4.47;;;1.70;;
27925;SDS011;15267;47.838;12.128;2022-07-29T06:33:42;3.25;;;1.65;;
27925;SDS011;15267;47.838;12.128;2022-07-29T06:36:08;3.45;;;1.80;;
27925;SDS011;15267;47.838;12.128;2022-07-29T06:38:34;3.63;;;1.73;;
27925;SDS011;15267;47.838;12.128;2022-07-29T06:41:00;6.07;;;1.80;;
27925;SDS011;15267;47.838;12.128;2022-07-29T06:43:31;3.83;;;1.83;;
27925;SDS011;15267;47.838;12.128;2022-07-29T06:46:02;2.58;;;1.90;;
27925;SDS011;15267;47.838;12.128;2022-07-29T06:48:28;1.77;;;1.52;;
27925;SDS011;15267;47.838;12.128;2022-07-29T06:50:57;2.00;;;1.80;;
27925;SDS011;15267;47.838;12.128;2022-07-29T06:53:24;3.30;;;1.75;;
27925;SDS011;15267;47.838;12.128;2022-07-29T06:55:50;1.85;;;1.40;;
27925;SDS011;15267;47.838;12.128;2022-07-29T06:58:16;2.20;;;1.60;;
27925;SDS011;15267;47.838;12.128;2022-07-29T07:00:45;3.00;;;1.75;;
27925;SDS011;15267;47.838;12.128;2022-07-29T07:03:11;3.50;;;1.92;;
27925;SDS011;15267;47.838;12.128;2022-07-29T07:05:37;3.33;;;2.10;;
27925;SDS011;15267;47.838;12.128;2022-07-29T07:08:04;2.92;;;1.90;;
27925;SDS011;15267;47.838;12.128;2022-07-29T07:10:30;2.45;;;1.80;;
27925;SDS011;15267;47.838;12.128;2022-07-29T07:12:56;4.70;;;1.90;;
27925;SDS011;15267;47.838;12.128;2022-07-29T07:15:22;2.20;;;1.70;;
27925;SDS011;15267;47.838;12.128;2022-07-29T07:17:48;3.05;;;1.80;;
27925;SDS011;15267;47.838;12.128;2022-07-29T07:20:14;2.65;;;1.65;;
27925;SDS011;15267;47.838;12.128;2022-07-29T07:22:40;1.77;;;1.67;;
27925;SDS011;15267;47.838;12.128;2022-07-29T07:25:07;2.00;;;1.67;;
27925;SDS011;15267;47.838;12.128;2022-07-29T07:27:33;1.92;;;1.70;;
27925;SDS011;15267;47.838;12.128;2022-07-29T07:30:00;2.33;;;1.90;;
27925;SDS011;15267;47.838;12.128;2022-07-29T07:32:26;3.55;;;1.70;;
27925;SDS011;15267;47.838;12.128;2022-07-29T07:34:52;1.75;;;1.60;;
27925;SDS011;15267;47.838;12.128;2022-07-29T07:37:18;2.20;;;1.30;;
27925;SDS011;15267;47.838;12.128;2022-07-29T07:39:45;1.73;;;1.45;;
27925;SDS011;15267;47.838;12.128;2022-07-29T07:42:11;2.17;;;1.60;;
27925;SDS011;15267;47.838;12.128;2022-07-29T07:44:38;2.15;;;1.50;;
27925;SDS011;15267;47.838;12.128;2022-07-29T07:47:04;1.92;;;1.63;;
27925;SDS011;15267;47.838;12.128;2022-07-29T07:49:30;2.15;;;1.70;;
27925;SDS011;15267;47.838;12.128;2022-07-29T07:51:56;2.25;;;1.50;;
27925;SDS011;15267;47.838;12.128;2022-07-29T07:54:22;2.92;;;1.60;;
27925;SDS011;15267;47.838;12.128;2022-07-29T07:56:48;2.15;;;1.65;;
27925;SDS011;15267;47.838;12.128;2022-07-29T07:59:15;3.35;;;1.60;;
27925;SDS011;15267;47.838;12.128;2022-07-29T08:01:41;3.00;;;1.38;;
27925;SDS011;15267;47.838;12.128;2022-07-29T08:04:07;3.53;;;1.60;;
27925;SDS011;15267;47.838;12.128;2022-07-29T08:06:33;2.08;;;1.45;;
27925;SDS011;15267;47.838;12.128;2022-07-29T08:09:00;3.50;;;1.70;;
27925;SDS011;15267;47.838;12.128;2022-07-29T08:11:26;2.83;;;1.80;;
27925;SDS011;15267;47.838;12.128;2022-07-29T08:13:53;2.17;;;1.40;;
27925;SDS011;15267;47.838;12.128;2022-07-29T08:16:19;1.45;;;1.25;;
27925;SDS011;15267;47.838;12.128;2022-07-29T08:18:45;4.93;;;2.30;;
27925;SDS011;15267;47.838;12.128;2022-07-29T08:21:12;3.53;;;1.90;;
27925;SDS011;15267;47.838;12.128;2022-07-29T08:23:38;2.20;;;1.70;;
27925;SDS011;15267;47.838;12.128;2022-07-29T08:26:09;2.97;;;1.65;;
27925;SDS011;15267;47.838;12.128;2022-07-29T08:28:39;2.47;;;1.50;;
27925;SDS011;15267;47.838;12.128;2022-07-29T08:31:05;3.72;;;1.60;;
27925;SDS011;15267;47.838;12.128;2022-07-29T08:33:32;1.60;;;1.45;;
27925;SDS011;15267;47.838;12.128;2022-07-29T08:35:58;3.88;;;1.48;;
27925;SDS011;15267;47.838;12.128;2022-07-29T08:38:24;1.65;;;1.50;;
27925;SDS011;15267;47.838;12.128;2022-07-29T08:40:51;2.95;;;1.52;;
27925;SDS011;15267;47.838;12.128;2022-07-29T08:43:17;2.50;;;1.67;;
27925;SDS011;15267;47.838;12.128;2022-07-29T08:45:48;1.83;;;1.30;;
27925;SDS011;15267;47.838;12.128;2022-07-29T08:48:16;3.53;;;1.60;;
27925;SDS011;15267;47.838;12.128;2022-07-29T08:50:45;1.50;;;1.40;;
27925;SDS011;15267;47.838;12.128;2022-07-29T08:53:13;2.33;;;1.33;;
27925;SDS011;15267;47.838;12.128;2022-07-29T08:55:40;1.80;;;1.63;;
27925;SDS011;15267;47.838;12.128;2022-07-29T08:58:08;1.70;;;1.45;;
27925;SDS011;15267;47.838;12.128;2022-07-29T09:00:35;1.50;;;1.40;;
27925;SDS011;15267;47.838;12.128;2022-07-29T09:03:02;1.92;;;1.45;;
27925;SDS011;15267;47.838;12.128;2022-07-29T09:05:29;1.38;;;1.25;;
27925;SDS011;15267;47.838;12.128;2022-07-29T09:07:57;1.60;;;1.50;;
27925;SDS011;15267;47.838;12.128;2022-07-29T09:10:23;1.70;;;1.60;;
27925;SDS011;15267;47.838;12.128;2022-07-29T09:12:49;1.88;;;1.30;;
27925;SDS011;15267;47.838;12.128;2022-07-29T09:15:15;2.85;;;1.50;;
27925;SDS011;15267;47.838;12.128;2022-07-29T09:17:45;3.05;;;1.30;;
27925;SDS011;15267;47.838;12.128;2022-07-29T09:20:21;1.50;;;1.30;;
27925;SDS011;15267;47.838;12.128;2022-07-29T09:22:48;1.92;;;1.15;;
27925;SDS011;15267;47.838;12.128;2022-07-29T09:25:35;2.67;;;1.30;;
27925;SDS011;15267;47.838;12.128;2022-07-29T09:30:33;2.33;;;1.10;;
27925;SDS011;15267;47.838;12.128;2022-07-29T09:33:01;1.15;;;1.00;;
27925;SDS011;15267;47.838;12.128;2022-07-29T09:35:28;1.65;;;1.38;;
27925;SDS011;15267;47.838;12.128;2022-07-29T09:37:54;2.42;;;1.10;;
27925;SDS011;15267;47.838;12.128;2022-07-29T09:40:22;1.20;;;1.10;;
27925;SDS011;15267;47.838;12.128;2022-07-29T09:42:48;4.15;;;1.23;;
27925;SDS011;15267;47.838;12.128;2022-07-29T09:45:28;1.27;;;1.00;;
27925;SDS011;15267;47.838;12.128;2022-07-29T09:47:54;2.05;;;1.20;;
27925;SDS011;15267;47.838;12.128;2022-07-29T09:50:22;1.10;;;1.00;;
27925;SDS011;15267;47.838;12.128;2022-07-29T09:52:51;2.83;;;1.40;;
27925;SDS011;15267;47.838;12.128;2022-07-29T09:55:18;1.20;;;1.10;;
27925;SDS011;15267;47.838;12.128;2022-07-29T09:57:44;1.70;;;1.00;;
27925;SDS011;15267;47.838;12.128;2022-07-29T10:00:12;1.10;;;1.00;;
27925;SDS011;15267;47.838;12.128;2022-07-29T10:02:39;1.20;;;1.10;;
27925;SDS011;15267;47.838;12.128;2022-07-29T10:05:09;1.40;;;1.20;;
27925;SDS011;15267;47.838;12.128;2022-07-29T10:10:10;1.70;;;1.08;;
27925;SDS011;15267;47.838;12.128;2022-07-29T10:12:47;1.52;;;1.00;;
27925;SDS011;15267;47.838;12.128;2022-07-29T10:15:14;1.58;;;1.00;;
27925;SDS011;15267;47.838;12.128;2022-07-29T10:17:41;1.50;;;0.95;;
27925;SDS011;15267;47.838;12.128;2022-07-29T10:20:07;1.00;;;1.00;;
27925;SDS011;15267;47.838;12.128;2022-07-29T10:22:33;1.33;;;1.00;;
27925;SDS011;15267;47.838;12.128;2022-07-29T10:24:59;1.23;;;0.93;;
27925;SDS011;15267;47.838;12.128;2022-07-29T10:27:25;1.23;;;1.10;;
27925;SDS011;15267;47.838;12.128;2022-07-29T10:29:51;1.58;;;1.27;;
27925;SDS011;15267;47.838;12.128;2022-07-29T10:40:24;1.50;;;1.40;;
27925;SDS011;15267;47.838;12.128;2022-07-29T10:43:21;2.25;;;1.17;;
27925;SDS011;15267;47.838;12.128;2022-07-29T10:45:47;2.28;;;1.73;;
27925;SDS011;15267;47.838;12.128;2022-07-29T10:48:14;1.92;;;1.50;;
27925;SDS011;15267;47.838;12.128;2022-07-29T10:50:53;2.30;;;1.70;;
27925;SDS011;15267;47.838;12.128;2022-07-29T10:53:20;4.53;;;1.60;;
27925;SDS011;15267;47.838;12.128;2022-07-29T10:55:46;4.90;;;1.90;;
27925;SDS011;15267;47.838;12.128;2022-07-29T10:58:15;3.88;;;1.55;;
27925;SDS011;15267;47.838;12.128;2022-07-29T11:00:42;2.65;;;1.30;;
27925;SDS011;15267;47.838;12.128;2022-07-29T11:03:08;1.77;;;1.27;;
27925;SDS011;15267;47.838;12.128;2022-07-29T11:05:55;1.85;;;1.50;;
27925;SDS011;15267;47.838;12.128;2022-07-29T11:08:22;2.35;;;1.48;;
27925;SDS011;15267;47.838;12.128;2022-07-29T11:10:49;1.40;;;1.30;;
27925;SDS011;15267;47.838;12.128;2022-07-29T11:16:00;2.33;;;1.55;;
27925;SDS011;15267;47.838;12.128;2022-07-29T11:18:27;1.92;;;1.50;;
27925;SDS011;15267;47.838;12.128;2022-07-29T11:20:53;1.90;;;1.60;;
27925;SDS011;15267;47.838;12.128;2022-07-29T11:28:36;1.85;;;1.50;;
27925;SDS011;15267;47.838;12.128;2022-07-29T11:31:05;2.95;;;1.50;;
27925;SDS011;15267;47.838;12.128;2022-07-29T11:33:33;2.00;;;1.50;;
27925;SDS011;15267;47.838;12.128;2022-07-29T11:38:35;1.60;;;1.33;;
27925;SDS011;15267;47.838;12.128;2022-07-29T11:43:56;2.63;;;1.63;;
27925;SDS011;15267;47.838;12.128;2022-07-29T11:49:21;1.60;;;1.30;;
27925;SDS011;15267;47.838;12.128;2022-07-29T11:51:51;3.35;;;1.50;;
27925;SDS011;15267;47.838;12.128;2022-07-29T11:54:22;3.97;;;1.63;;
27925;SDS011;15267;47.838;12.128;2022-07-29T11:56:49;4.35;;;1.58;;
27925;SDS011;15267;47.838;12.128;2022-07-29T11:59:16;4.15;;;1.63;;
27925;SDS011;15267;47.838;12.128;2022-07-29T12:01:53;2.33;;;1.50;;
27925;SDS011;15267;47.838;12.128;2022-07-29T12:04:19;2.53;;;1.40;;
27925;SDS011;15267;47.838;12.128;2022-07-29T12:06:51;2.10;;;1.50;;
27925;SDS011;15267;47.838;12.128;2022-07-29T12:09:17;4.43;;;1.50;;
27925;SDS011;15267;47.838;12.128;2022-07-29T12:11:43;2.00;;;1.50;;
27925;SDS011;15267;47.838;12.128;2022-07-29T12:14:29;3.10;;;1.60;;
27925;SDS011;15267;47.838;12.128;2022-07-29T12:16:56;3.35;;;1.63;;
27925;SDS011;15267;47.838;12.128;2022-07-29T12:19:22;3.13;;;1.60;;
27925;SDS011;15267;47.838;12.128;2022-07-29T12:21:49;2.85;;;1.50;;
27925;SDS011;15267;47.838;12.128;2022-07-29T12:24:16;4.97;;;1.77;;
27925;SDS011;15267;47.838;12.128;2022-07-29T12:26:49;2.55;;;1.58;;
27925;SDS011;15267;47.838;12.128;2022-07-29T12:29:16;6.60;;;1.80;;
27925;SDS011;15267;47.838;12.128;2022-07-29T12:31:42;3.50;;;1.65;;
27925;SDS011;15267;47.838;12.128;2022-07-29T12:34:09;2.22;;;1.40;;
27925;SDS011;15267;47.838;12.128;2022-07-29T12:36:36;2.63;;;1.52;;
27925;SDS011;15267;47.838;12.128;2022-07-29T12:39:02;3.80;;;1.40;;
27925;SDS011;15267;47.838;12.128;2022-07-29T12:41:28;3.05;;;1.55;;
27925;SDS011;15267;47.838;12.128;2022-07-29T12:43:54;5.53;;;1.80;;
27925;SDS011;15267;47.838;12.128;2022-07-29T12:46:21;5.75;;;1.63;;
27925;SDS011;15267;47.838;12.128;2022-07-29T12:48:49;3.65;;;1.40;;
27925;SDS011;15267;47.838;12.128;2022-07-29T12:51:16;3.08;;;1.30;;
27925;SDS011;15267;47.838;12.128;2022-07-29T12:54:00;3.10;;;1.30;;
27925;SDS011;15267;47.838;12.128;2022-07-29T12:56:27;3.67;;;1.42;;
27925;SDS011;15267;47.838;12.128;2022-07-29T12:58:53;3.45;;;1.15;;
27925;SDS011;15267;47.838;12.128;2022-07-29T13:01:19;4.25;;;1.35;;
27925;SDS011;15267;47.838;12.128;2022-07-29T13:09:14;1.58;;;1.30;;
27925;SDS011;15267;47.838;12.128;2022-07-29T13:11:41;2.80;;;1.50;;
27925;SDS011;15267;47.838;12.128;2022-07-29T13:14:09;2.00;;;1.50;;
27925;SDS011;15267;47.838;12.128;2022-07-29T13:16:36;4.35;;;1.58;;
27925;SDS011;15267;47.838;12.128;2022-07-29T13:19:05;1.80;;;1.38;;
27925;SDS011;15267;47.838;12.128;2022-07-29T13:21:31;4.00;;;1.50;;
27925;SDS011;15267;47.838;12.128;2022-07-29T13:23:57;4.93;;;1.50;;
27925;SDS011;15267;47.838;12.128;2022-07-29T13:26:23;2.30;;;1.40;;
27925;SDS011;15267;47.838;12.128;2022-07-29T13:28:49;3.90;;;1.40;;
27925;SDS011;15267;47.838;12.128;2022-07-29T13:31:15;3.08;;;1.63;;
27925;SDS011;15267;47.838;12.128;2022-07-29T13:33:41;3.90;;;1.60;;
27925;SDS011;15267;47.838;12.128;2022-07-29T13:36:07;3.42;;;1.40;;
27925;SDS011;15267;47.838;12.128;2022-07-29T13:38:33;4.47;;;1.80;;
27925;SDS011;15267;47.838;12.128;2022-07-29T13:40:59;2.20;;;1.40;;
27925;SDS011;15267;47.838;12.128;2022-07-29T13:43:25;4.65;;;1.50;;
27925;SDS011;15267;47.838;12.128;2022-07-29T13:45:50;3.10;;;1.45;;
27925;SDS011;15267;47.838;12.128;2022-07-29T13:48:17;1.75;;;1.40;;
27925;SDS011;15267;47.838;12.128;2022-07-29T13:50:43;3.92;;;1.30;;
27925;SDS011;15267;47.838;12.128;2022-07-29T13:53:09;4.57;;;1.40;;
27925;SDS011;15267;47.838;12.128;2022-07-29T13:55:35;2.08;;;1.40;;
27925;SDS011;15267;47.838;12.128;2022-07-29T13:58:01;2.85;;;1.25;;
27925;SDS011;15267;47.838;12.128;2022-07-29T14:00:27;2.75;;;1.30;;
27925;SDS011;15267;47.838;12.128;2022-07-29T14:02:53;3.15;;;1.50;;
27925;SDS011;15267;47.838;12.128;2022-07-29T14:05:19;3.65;;;1.50;;
27925;SDS011;15267;47.838;12.128;2022-07-29T14:07:45;1.70;;;1.30;;
27925;SDS011;15267;47.838;12.128;2022-07-29T14:10:11;2.63;;;1.33;;
27925;SDS011;15267;47.838;12.128;2022-07-29T14:12:37;3.78;;;1.52;;
27925;SDS011;15267;47.838;12.128;2022-07-29T14:15:04;2.85;;;1.33;;
27925;SDS011;15267;47.838;12.128;2022-07-29T14:17:30;2.08;;;1.20;;
27925;SDS011;15267;47.838;12.128;2022-07-29T14:19:56;3.60;;;1.33;;
27925;SDS011;15267;47.838;12.128;2022-07-29T14:22:22;1.30;;;1.20;;
27925;SDS011;15267;47.838;12.128;2022-07-29T14:24:50;1.30;;;1.17;;
27925;SDS011;15267;47.838;12.128;2022-07-29T14:27:16;1.50;;;1.10;;
27925;SDS011;15267;47.838;12.128;2022-07-29T14:29:42;1.67;;;1.25;;
27925;SDS011;15267;47.838;12.128;2022-07-29T14:32:08;3.03;;;1.20;;
27925;SDS011;15267;47.838;12.128;2022-07-29T14:34:35;1.38;;;1.27;;
27925;SDS011;15267;47.838;12.128;2022-07-29T14:37:01;6.22;;;1.35;;
27925;SDS011;15267;47.838;12.128;2022-07-29T14:39:29;2.60;;;1.05;;
27925;SDS011;15267;47.838;12.128;2022-07-29T14:41:55;5.53;;;1.27;;
27925;SDS011;15267;47.838;12.128;2022-07-29T14:44:21;3.25;;;1.15;;
27925;SDS011;15267;47.838;12.128;2022-07-29T14:46:48;2.50;;;1.23;;
27925;SDS011;15267;47.838;12.128;2022-07-29T14:49:14;3.00;;;1.30;;
27925;SDS011;15267;47.838;12.128;2022-07-29T14:51:40;3.30;;;1.30;;
27925;SDS011;15267;47.838;12.128;2022-07-29T14:54:06;3.92;;;1.30;;
27925;SDS011;15267;47.838;12.128;2022-07-29T14:56:32;2.42;;;1.25;;
27925;SDS011;15267;47.838;12.128;2022-07-29T14:58:58;2.72;;;1.15;;
27925;SDS011;15267;47.838;12.128;2022-07-29T15:01:24;3.72;;;1.35;;
27925;SDS011;15267;47.838;12.128;2022-07-29T15:03:50;2.05;;;1.45;;
27925;SDS011;15267;47.838;12.128;2022-07-29T15:06:16;1.80;;;1.40;;
27925;SDS011;15267;47.838;12.128;2022-07-29T15:08:42;1.90;;;1.42;;
27925;SDS011;15267;47.838;12.128;2022-07-29T15:11:08;2.13;;;1.05;;
27925;SDS011;15267;47.838;12.128;2022-07-29T15:13:34;3.35;;;1.40;;
27925;SDS011;15267;47.838;12.128;2022-07-29T15:16:00;2.58;;;1.40;;
27925;SDS011;15267;47.838;12.128;2022-07-29T15:18:26;1.50;;;1.40;;
27925;SDS011;15267;47.838;12.128;2022-07-29T15:20:52;2.97;;;1.40;;
27925;SDS011;15267;47.838;12.128;2022-07-29T15:23:18;1.42;;;1.33;;
27925;SDS011;15267;47.838;12.128;2022-07-29T15:25:44;1.63;;;1.30;;